sensor_id;sensor_type;location;lat;lon;timestamp;pressure;altitude;pressure_sealevel;temperature
78905;BMP280;68291;49.602;8.722;2023-08-21T00:02:16;100001.84;;;24.53
78905;BMP280;68291;49.602;8.722;2023-08-21T00:04:48;99996.88;;;24.50
78905;BMP280;68291;49.602;8.722;2023-08-21T00:07:34;99999.53;;;24.50
78905;BMP280;68291;49.602;8.722;2023-08-21T00:10:20;100003.25;;;24.48
78905;BMP280;68291;49.602;8.722;2023-08-21T00:13:14;100005.50;;;24.43
78905;BMP280;68291;49.602;8.722;2023-08-21T00:15:52;100007.72;;;24.38
78905;BMP280;68291;49.602;8.722;2023-08-21T00:18:37;99996.81;;;24.33
78905;BMP280;68291;49.602;8.722;2023-08-21T00:21:22;100003.00;;;24.41
78905;BMP280;68291;49.602;8.722;2023-08-21T00:24:08;100002.72;;;24.44
78905;BMP280;68291;49.602;8.722;2023-08-21T00:26:54;100000.22;;;24.43
78905;BMP280;68291;49.602;8.722;2023-08-21T00:29:28;100000.22;;;24.43
78905;BMP280;68291;49.602;8.722;2023-08-21T00:32:04;100000.66;;;24.39
78905;BMP280;68291;49.602;8.722;2023-08-21T00:35:07;100004.72;;;24.33
78905;BMP280;68291;49.602;8.722;2023-08-21T00:37:57;100005.09;;;24.29
78905;BMP280;68291;49.602;8.722;2023-08-21T00:40:53;99998.63;;;24.23
78905;BMP280;68291;49.602;8.722;2023-08-21T00:43:49;100000.28;;;24.15
78905;BMP280;68291;49.602;8.722;2023-08-21T00:47:06;100007.78;;;24.10
78905;BMP280;68291;49.602;8.722;2023-08-21T00:50:01;100006.94;;;24.09
78905;BMP280;68291;49.602;8.722;2023-08-21T00:52:47;100003.78;;;24.06
78905;BMP280;68291;49.602;8.722;2023-08-21T00:55:43;99998.78;;;24.03
78905;BMP280;68291;49.602;8.722;2023-08-21T00:58:20;100004.31;;;24.00
78905;BMP280;68291;49.602;8.722;2023-08-21T01:01:05;100001.16;;;23.97
78905;BMP280;68291;49.602;8.722;2023-08-21T01:04:24;99999.91;;;23.91
78905;BMP280;68291;49.602;8.722;2023-08-21T01:07:14;99997.56;;;23.88
78905;BMP280;68291;49.602;8.722;2023-08-21T01:10:18;100004.78;;;23.86
78905;BMP280;68291;49.602;8.722;2023-08-21T01:13:00;100006.72;;;23.84
78905;BMP280;68291;49.602;8.722;2023-08-21T01:15:39;100003.38;;;23.82
78905;BMP280;68291;49.602;8.722;2023-08-21T01:18:24;100006.16;;;23.81
78905;BMP280;68291;49.602;8.722;2023-08-21T01:21:09;100000.34;;;23.77
78905;BMP280;68291;49.602;8.722;2023-08-21T01:23:44;100010.03;;;23.77
78905;BMP280;68291;49.602;8.722;2023-08-21T01:26:30;100010.31;;;23.74
78905;BMP280;68291;49.602;8.722;2023-08-21T01:29:11;100009.50;;;23.73
78905;BMP280;68291;49.602;8.722;2023-08-21T01:32:16;100009.19;;;23.76
78905;BMP280;68291;49.602;8.722;2023-08-21T01:35:01;100011.41;;;23.81
78905;BMP280;68291;49.602;8.722;2023-08-21T01:37:41;100006.56;;;23.76
78905;BMP280;68291;49.602;8.722;2023-08-21T01:41:30;100016.81;;;23.70
78905;BMP280;68291;49.602;8.722;2023-08-21T01:44:20;100014.31;;;23.69
78905;BMP280;68291;49.602;8.722;2023-08-21T01:47:03;100015.31;;;23.68
78905;BMP280;68291;49.602;8.722;2023-08-21T01:49:42;100011.97;;;23.66
78905;BMP280;68291;49.602;8.722;2023-08-21T01:52:32;100007.00;;;23.63
78905;BMP280;68291;49.602;8.722;2023-08-21T01:55:26;100004.63;;;23.60
78905;BMP280;68291;49.602;8.722;2023-08-21T01:58:44;100012.81;;;23.57
78905;BMP280;68291;49.602;8.722;2023-08-21T02:01:41;100015.16;;;23.60
78905;BMP280;68291;49.602;8.722;2023-08-21T02:04:44;100011.41;;;23.62
78905;BMP280;68291;49.602;8.722;2023-08-21T02:07:34;100014.75;;;23.64
78905;BMP280;68291;49.602;8.722;2023-08-21T02:10:10;100011.97;;;23.66
78905;BMP280;68291;49.602;8.722;2023-08-21T02:13:11;100012.09;;;23.64
78905;BMP280;68291;49.602;8.722;2023-08-21T02:16:53;100015.03;;;23.61
78905;BMP280;68291;49.602;8.722;2023-08-21T02:19:56;100010.88;;;23.59
78905;BMP280;68291;49.602;8.722;2023-08-21T02:22:42;100020.00;;;23.55
78905;BMP280;68291;49.602;8.722;2023-08-21T02:25:45;100016.06;;;23.49
78905;BMP280;68291;49.602;8.722;2023-08-21T02:29:01;100016.50;;;23.45
78905;BMP280;68291;49.602;8.722;2023-08-21T02:32:09;100012.50;;;23.41
78905;BMP280;68291;49.602;8.722;2023-08-21T02:34:56;100018.03;;;23.38
78905;BMP280;68291;49.602;8.722;2023-08-21T02:37:43;100018.31;;;23.35
78905;BMP280;68291;49.602;8.722;2023-08-21T02:40:28;100016.91;;;23.31
78905;BMP280;68291;49.602;8.722;2023-08-21T02:43:04;100020.53;;;23.30
78905;BMP280;68291;49.602;8.722;2023-08-21T02:45:35;100024.09;;;23.29
78905;BMP280;68291;49.602;8.722;2023-08-21T02:48:23;100020.78;;;23.27
78905;BMP280;68291;49.602;8.722;2023-08-21T02:51:01;100011.50;;;23.23
78905;BMP280;68291;49.602;8.722;2023-08-21T02:53:47;100010.53;;;23.24
78905;BMP280;68291;49.602;8.722;2023-08-21T02:56:37;100008.63;;;23.26
78905;BMP280;68291;49.602;8.722;2023-08-21T02:59:23;100010.25;;;23.27
78905;BMP280;68291;49.602;8.722;2023-08-21T03:01:59;100017.91;;;23.30
78905;BMP280;68291;49.602;8.722;2023-08-21T03:05:34;100010.97;;;23.29
78905;BMP280;68291;49.602;8.722;2023-08-21T03:08:15;100016.91;;;23.31
78905;BMP280;68291;49.602;8.722;2023-08-21T03:11:18;100014.56;;;23.28
78905;BMP280;68291;49.602;8.722;2023-08-21T03:14:15;100014.97;;;23.24
78905;BMP280;68291;49.602;8.722;2023-08-21T03:17:01;100013.88;;;23.26
78905;BMP280;68291;49.602;8.722;2023-08-21T03:19:43;100012.19;;;23.25
78905;BMP280;68291;49.602;8.722;2023-08-21T03:22:24;100014.41;;;23.20
78905;BMP280;68291;49.602;8.722;2023-08-21T03:25:00;100012.19;;;23.16
78905;BMP280;68291;49.602;8.722;2023-08-21T03:27:44;100010.91;;;23.10
78905;BMP280;68291;49.602;8.722;2023-08-21T03:30:17;100013.84;;;23.07
78905;BMP280;68291;49.602;8.722;2023-08-21T03:33:17;100005.53;;;23.02
78905;BMP280;68291;49.602;8.722;2023-08-21T03:35:57;100015.88;;;23.04
78905;BMP280;68291;49.602;8.722;2023-08-21T03:39:27;100019.22;;;23.06
78905;BMP280;68291;49.602;8.722;2023-08-21T03:41:59;100013.28;;;23.13
78905;BMP280;68291;49.602;8.722;2023-08-21T03:44:45;100015.91;;;23.13
78905;BMP280;68291;49.602;8.722;2023-08-21T03:48:01;100015.47;;;23.08
78905;BMP280;68291;49.602;8.722;2023-08-21T03:51:03;100018.38;;;23.05
78905;BMP280;68291;49.602;8.722;2023-08-21T03:53:37;100021.28;;;23.02
78905;BMP280;68291;49.602;8.722;2023-08-21T03:56:18;100019.06;;;22.98
78905;BMP280;68291;49.602;8.722;2023-08-21T03:59:15;100027.91;;;22.97
78905;BMP280;68291;49.602;8.722;2023-08-21T04:02:01;100027.06;;;22.97
78905;BMP280;68291;49.602;8.722;2023-08-21T04:04:45;100027.06;;;22.97
78905;BMP280;68291;49.602;8.722;2023-08-21T04:07:15;100032.06;;;23.00
78905;BMP280;68291;49.602;8.722;2023-08-21T04:10:15;100034.25;;;22.95
78905;BMP280;68291;49.602;8.722;2023-08-21T04:13:33;100041.13;;;22.86
78905;BMP280;68291;49.602;8.722;2023-08-21T04:16:25;100045.22;;;22.79
78905;BMP280;68291;49.602;8.722;2023-08-21T04:19:22;100048.25;;;22.75
78905;BMP280;68291;49.602;8.722;2023-08-21T04:22:12;100043.25;;;22.72
78905;BMP280;68291;49.602;8.722;2023-08-21T04:25:27;100043.53;;;22.69
78905;BMP280;68291;49.602;8.722;2023-08-21T04:28:05;100043.53;;;22.69
78905;BMP280;68291;49.602;8.722;2023-08-21T04:30:43;100038.28;;;22.69
78905;BMP280;68291;49.602;8.722;2023-08-21T04:33:17;100041.88;;;22.68
78905;BMP280;68291;49.602;8.722;2023-08-21T04:35:59;100043.53;;;22.69
78905;BMP280;68291;49.602;8.722;2023-08-21T04:38:58;100045.88;;;22.72
78905;BMP280;68291;49.602;8.722;2023-08-21T04:41:56;100045.88;;;22.72
78905;BMP280;68291;49.602;8.722;2023-08-21T04:44:31;100044.94;;;22.73
78905;BMP280;68291;49.602;8.722;2023-08-21T04:47:43;100046.72;;;22.72
78905;BMP280;68291;49.602;8.722;2023-08-21T04:50:44;100047.69;;;22.71
78905;BMP280;68291;49.602;8.722;2023-08-21T04:53:47;100043.84;;;22.75
78905;BMP280;68291;49.602;8.722;2023-08-21T04:56:53;100054.63;;;22.82
78905;BMP280;68291;49.602;8.722;2023-08-21T04:59:39;100058.69;;;22.86
78905;BMP280;68291;49.602;8.722;2023-08-21T05:02:20;100052.22;;;22.90
78905;BMP280;68291;49.602;8.722;2023-08-21T05:05:06;100061.50;;;22.94
78905;BMP280;68291;49.602;8.722;2023-08-21T05:08:01;100061.50;;;22.94
78905;BMP280;68291;49.602;8.722;2023-08-21T05:10:54;100059.13;;;22.91
78905;BMP280;68291;49.602;8.722;2023-08-21T05:13:54;100062.34;;;22.94
78905;BMP280;68291;49.602;8.722;2023-08-21T05:16:36;100068.13;;;22.98
78905;BMP280;68291;49.602;8.722;2023-08-21T05:19:31;100065.25;;;23.01
78905;BMP280;68291;49.602;8.722;2023-08-21T05:22:41;100060.69;;;23.02
78905;BMP280;68291;49.602;8.722;2023-08-21T05:25:20;100072.34;;;23.09
78905;BMP280;68291;49.602;8.722;2023-08-21T05:28:25;100076.34;;;23.13
78905;BMP280;68291;49.602;8.722;2023-08-21T05:31:19;100074.28;;;23.17
78905;BMP280;68291;49.602;8.722;2023-08-21T05:34:16;100071.00;;;23.24
78905;BMP280;68291;49.602;8.722;2023-08-21T05:37:03;100076.66;;;23.29
78905;BMP280;68291;49.602;8.722;2023-08-21T05:40:06;100069.34;;;23.33
78905;BMP280;68291;49.602;8.722;2023-08-21T05:42:41;100066.84;;;23.40
78905;BMP280;68291;49.602;8.722;2023-08-21T05:45:24;100073.38;;;23.46
78905;BMP280;68291;49.602;8.722;2023-08-21T05:48:11;100077.13;;;23.53
78905;BMP280;68291;49.602;8.722;2023-08-21T05:51:16;100074.69;;;23.61
78905;BMP280;68291;49.602;8.722;2023-08-21T05:54:19;100079.13;;;23.70
78905;BMP280;68291;49.602;8.722;2023-08-21T05:57:37;100080.22;;;23.76
78905;BMP280;68291;49.602;8.722;2023-08-21T06:00:19;100083.94;;;23.83
78905;BMP280;68291;49.602;8.722;2023-08-21T06:02:51;100089.22;;;23.93
78905;BMP280;68291;49.602;8.722;2023-08-21T06:05:49;100082.44;;;24.00
78905;BMP280;68291;49.602;8.722;2023-08-21T06:09:05;100084.34;;;24.07
78905;BMP280;68291;49.602;8.722;2023-08-21T06:11:51;100081.88;;;24.15
78905;BMP280;68291;49.602;8.722;2023-08-21T06:14:43;100090.84;;;24.22
78905;BMP280;68291;49.602;8.722;2023-08-21T06:17:17;100094.78;;;24.27
78905;BMP280;68291;49.602;8.722;2023-08-21T06:20:13;100093.38;;;24.33
78905;BMP280;68291;49.602;8.722;2023-08-21T06:22:46;100090.88;;;24.41
78905;BMP280;68291;49.602;8.722;2023-08-21T06:25:20;100099.03;;;24.47
78905;BMP280;68291;49.602;8.722;2023-08-21T06:28:07;100088.38;;;24.48
78905;BMP280;68291;49.602;8.722;2023-08-21T06:30:57;100094.41;;;24.58
78905;BMP280;68291;49.602;8.722;2023-08-21T06:33:30;100100.63;;;24.67
78905;BMP280;68291;49.602;8.722;2023-08-21T06:36:14;100099.94;;;24.74
78905;BMP280;68291;49.602;8.722;2023-08-21T06:39:09;100100.03;;;24.82
78905;BMP280;68291;49.602;8.722;2023-08-21T06:42:15;100093.22;;;24.89
78905;BMP280;68291;49.602;8.722;2023-08-21T06:45:11;100089.06;;;24.96
78905;BMP280;68291;49.602;8.722;2023-08-21T06:48:13;100091.78;;;25.04
78905;BMP280;68291;49.602;8.722;2023-08-21T06:51:00;100095.34;;;25.12
78905;BMP280;68291;49.602;8.722;2023-08-21T06:53:40;100096.28;;;25.20
78905;BMP280;68291;49.602;8.722;2023-08-21T06:56:26;100097.22;;;25.29
78905;BMP280;68291;49.602;8.722;2023-08-21T06:59:12;100094.69;;;25.37
78905;BMP280;68291;49.602;8.722;2023-08-21T07:01:54;100092.97;;;25.45
78905;BMP280;68291;49.602;8.722;2023-08-21T07:04:59;100087.06;;;25.51
78905;BMP280;68291;49.602;8.722;2023-08-21T07:07:57;100090.50;;;25.61
78905;BMP280;68291;49.602;8.722;2023-08-21T07:10:55;100090.28;;;25.72
78905;BMP280;68291;49.602;8.722;2023-08-21T07:13:41;100096.16;;;25.83
78905;BMP280;68291;49.602;8.722;2023-08-21T07:16:36;100091.50;;;25.94
78905;BMP280;68291;49.602;8.722;2023-08-21T07:19:22;100096.69;;;26.04
78905;BMP280;68291;49.602;8.722;2023-08-21T07:22:11;100092.00;;;26.15
78905;BMP280;68291;49.602;8.722;2023-08-21T07:24:58;100097.06;;;26.26
78905;BMP280;68291;49.602;8.722;2023-08-21T07:27:43;100089.91;;;26.36
78905;BMP280;68291;49.602;8.722;2023-08-21T07:30:54;100091.00;;;26.50
78905;BMP280;68291;49.602;8.722;2023-08-21T07:33:30;100106.41;;;26.63
78905;BMP280;68291;49.602;8.722;2023-08-21T07:36:07;100090.28;;;26.74
78905;BMP280;68291;49.602;8.722;2023-08-21T07:38:57;100090.91;;;26.85
78905;BMP280;68291;49.602;8.722;2023-08-21T07:41:49;100096.59;;;26.98
78905;BMP280;68291;49.602;8.722;2023-08-21T07:44:35;100094.34;;;27.11
78905;BMP280;68291;49.602;8.722;2023-08-21T07:47:06;100095.69;;;27.22
78905;BMP280;68291;49.602;8.722;2023-08-21T07:49:52;100086.63;;;27.33
78905;BMP280;68291;49.602;8.722;2023-08-21T07:52:33;100086.22;;;27.45
78905;BMP280;68291;49.602;8.722;2023-08-21T07:55:15;100093.53;;;27.59
78905;BMP280;68291;49.602;8.722;2023-08-21T07:57:57;100096.53;;;27.72
78905;BMP280;68291;49.602;8.722;2023-08-21T08:00:43;100095.91;;;27.86
78905;BMP280;68291;49.602;8.722;2023-08-21T08:03:22;100093.75;;;27.97
78905;BMP280;68291;49.602;8.722;2023-08-21T08:05:59;100097.75;;;28.09
78905;BMP280;68291;49.602;8.722;2023-08-21T08:08:43;100095.63;;;28.20
78905;BMP280;68291;49.602;8.722;2023-08-21T08:11:39;100094.28;;;28.32
78905;BMP280;68291;49.602;8.722;2023-08-21T08:14:25;100093.94;;;28.43
78905;BMP280;68291;49.602;8.722;2023-08-21T08:17:14;100094.59;;;28.53
78905;BMP280;68291;49.602;8.722;2023-08-21T08:19:59;100084.63;;;28.62
78905;BMP280;68291;49.602;8.722;2023-08-21T08:22:55;100085.94;;;28.74
78905;BMP280;68291;49.602;8.722;2023-08-21T08:25:38;100086.91;;;28.81
78905;BMP280;68291;49.602;8.722;2023-08-21T08:28:44;100088.88;;;28.95
78905;BMP280;68291;49.602;8.722;2023-08-21T08:31:34;100084.84;;;29.07
78905;BMP280;68291;49.602;8.722;2023-08-21T08:34:36;100082.66;;;29.18
78905;BMP280;68291;49.602;8.722;2023-08-21T08:37:28;100087.78;;;29.28
78905;BMP280;68291;49.602;8.722;2023-08-21T08:40:40;100079.44;;;29.38
78905;BMP280;68291;49.602;8.722;2023-08-21T08:43:14;100080.22;;;29.47
78905;BMP280;68291;49.602;8.722;2023-08-21T08:46:24;100084.75;;;29.61
78905;BMP280;68291;49.602;8.722;2023-08-21T08:49:40;100088.88;;;29.71
78905;BMP280;68291;49.602;8.722;2023-08-21T08:52:35;100076.56;;;29.78
78905;BMP280;68291;49.602;8.722;2023-08-21T08:55:07;100081.44;;;29.89
78905;BMP280;68291;49.602;8.722;2023-08-21T08:57:51;100076.38;;;30.01
78905;BMP280;68291;49.602;8.722;2023-08-21T09:00:30;100077.63;;;30.13
78905;BMP280;68291;49.602;8.722;2023-08-21T09:03:39;100082.53;;;30.24
78905;BMP280;68291;49.602;8.722;2023-08-21T09:06:35;100077.59;;;30.35
78905;BMP280;68291;49.602;8.722;2023-08-21T09:09:18;100072.66;;;30.47
78905;BMP280;68291;49.602;8.722;2023-08-21T09:12:14;100074.06;;;30.57
78905;BMP280;68291;49.602;8.722;2023-08-21T09:15:18;100067.47;;;30.67
78905;BMP280;68291;49.602;8.722;2023-08-21T09:18:25;100069.69;;;30.78
78905;BMP280;68291;49.602;8.722;2023-08-21T09:21:34;100068.22;;;30.90
78905;BMP280;68291;49.602;8.722;2023-08-21T09:24:21;100070.78;;;30.98
78905;BMP280;68291;49.602;8.722;2023-08-21T09:27:17;100068.03;;;31.06
78905;BMP280;68291;49.602;8.722;2023-08-21T09:30:08;100064.19;;;31.08
78905;BMP280;68291;49.602;8.722;2023-08-21T09:33:09;100068.22;;;31.19
78905;BMP280;68291;49.602;8.722;2023-08-21T09:35:57;100066.44;;;31.26
78905;BMP280;68291;49.602;8.722;2023-08-21T09:38:48;100063.09;;;31.32
78905;BMP280;68291;49.602;8.722;2023-08-21T09:41:26;100065.63;;;31.39
78905;BMP280;68291;49.602;8.722;2023-08-21T09:44:22;100063.66;;;31.48
78905;BMP280;68291;49.602;8.722;2023-08-21T09:47:02;100065.97;;;31.51
78905;BMP280;68291;49.602;8.722;2023-08-21T09:49:34;100065.75;;;31.52
78905;BMP280;68291;49.602;8.722;2023-08-21T09:52:50;100061.06;;;31.54
78905;BMP280;68291;49.602;8.722;2023-08-21T09:56:01;100061.34;;;31.59
78905;BMP280;68291;49.602;8.722;2023-08-21T09:58:37;100060.22;;;31.68
78905;BMP280;68291;49.602;8.722;2023-08-21T10:01:24;100064.16;;;31.72
78905;BMP280;68291;49.602;8.722;2023-08-21T10:04:25;100060.72;;;31.78
78905;BMP280;68291;49.602;8.722;2023-08-21T10:07:21;100065.97;;;31.86
78905;BMP280;68291;49.602;8.722;2023-08-21T10:10:00;100057.41;;;31.90
78905;BMP280;68291;49.602;8.722;2023-08-21T10:13:12;100051.88;;;31.92
78905;BMP280;68291;49.602;8.722;2023-08-21T10:16:06;100053.16;;;31.96
78905;BMP280;68291;49.602;8.722;2023-08-21T10:19:04;100055.03;;;32.02
78905;BMP280;68291;49.602;8.722;2023-08-21T10:21:49;100050.56;;;32.08
78905;BMP280;68291;49.602;8.722;2023-08-21T10:24:34;100053.28;;;32.15
78905;BMP280;68291;49.602;8.722;2023-08-21T10:27:08;100046.56;;;32.19
78905;BMP280;68291;49.602;8.722;2023-08-21T10:30:16;100046.19;;;32.22
78905;BMP280;68291;49.602;8.722;2023-08-21T10:33:04;100052.59;;;32.27
78905;BMP280;68291;49.602;8.722;2023-08-21T10:35:53;100042.22;;;32.32
78905;BMP280;68291;49.602;8.722;2023-08-21T10:38:31;100049.63;;;32.37
78905;BMP280;68291;49.602;8.722;2023-08-21T10:41:08;100042.69;;;32.42
78905;BMP280;68291;49.602;8.722;2023-08-21T10:43:56;100037.41;;;32.48
78905;BMP280;68291;49.602;8.722;2023-08-21T10:46:54;100035.41;;;32.57
78905;BMP280;68291;49.602;8.722;2023-08-21T10:49:55;100030.09;;;32.63
78905;BMP280;68291;49.602;8.722;2023-08-21T10:52:37;100028.47;;;32.69
78905;BMP280;68291;49.602;8.722;2023-08-21T10:55:17;100033.03;;;32.75
78905;BMP280;68291;49.602;8.722;2023-08-21T10:57:59;100022.00;;;32.78
78905;BMP280;68291;49.602;8.722;2023-08-21T11:00:40;100018.94;;;32.80
78905;BMP280;68291;49.602;8.722;2023-08-21T11:03:39;100019.94;;;32.79
78905;BMP280;68291;49.602;8.722;2023-08-21T11:06:19;100017.72;;;32.83
78905;BMP280;68291;49.602;8.722;2023-08-21T11:09:15;100023.28;;;32.88
78905;BMP280;68291;49.602;8.722;2023-08-21T11:11:59;100020.88;;;32.93
78905;BMP280;68291;49.602;8.722;2023-08-21T11:15:08;100028.88;;;32.93
78905;BMP280;68291;49.602;8.722;2023-08-21T11:18:03;100031.94;;;32.96
78905;BMP280;68291;49.602;8.722;2023-08-21T11:21:38;100037.75;;;33.06
78905;BMP280;68291;49.602;8.722;2023-08-21T11:24:12;100023.81;;;33.11
78905;BMP280;68291;49.602;8.722;2023-08-21T11:27:03;100027.53;;;33.16
78905;BMP280;68291;49.602;8.722;2023-08-21T11:29:50;100027.97;;;33.26
78905;BMP280;68291;49.602;8.722;2023-08-21T11:32:28;100023.50;;;33.33
78905;BMP280;68291;49.602;8.722;2023-08-21T11:35:08;100023.94;;;33.36
78905;BMP280;68291;49.602;8.722;2023-08-21T11:38:33;100024.97;;;33.42
78905;BMP280;68291;49.602;8.722;2023-08-21T11:41:09;100013.50;;;33.54
78905;BMP280;68291;49.602;8.722;2023-08-21T11:44:03;100023.56;;;33.65
78905;BMP280;68291;49.602;8.722;2023-08-21T11:46:42;100014.16;;;33.75
78905;BMP280;68291;49.602;8.722;2023-08-21T11:49:29;100017.91;;;33.87
78905;BMP280;68291;49.602;8.722;2023-08-21T11:52:11;100019.97;;;33.91
78905;BMP280;68291;49.602;8.722;2023-08-21T11:54:49;100016.66;;;33.96
78905;BMP280;68291;49.602;8.722;2023-08-21T11:57:35;100024.88;;;34.01
78905;BMP280;68291;49.602;8.722;2023-08-21T12:00:32;100022.41;;;34.06
78905;BMP280;68291;49.602;8.722;2023-08-21T12:03:36;100015.44;;;34.05
78905;BMP280;68291;49.602;8.722;2023-08-21T12:06:28;100014.63;;;34.11
78905;BMP280;68291;49.602;8.722;2023-08-21T12:09:11;100011.50;;;34.20
78905;BMP280;68291;49.602;8.722;2023-08-21T12:12:33;100015.44;;;34.17
78905;BMP280;68291;49.602;8.722;2023-08-21T12:15:09;100016.03;;;34.19
78905;BMP280;68291;49.602;8.722;2023-08-21T12:17:55;100003.50;;;34.20
78905;BMP280;68291;49.602;8.722;2023-08-21T12:20:41;100012.75;;;34.17
78905;BMP280;68291;49.602;8.722;2023-08-21T12:23:16;100016.44;;;34.17
78905;BMP280;68291;49.602;8.722;2023-08-21T12:25:55;100013.75;;;34.23
78905;BMP280;68291;49.602;8.722;2023-08-21T12:28:47;100000.84;;;34.33
78905;BMP280;68291;49.602;8.722;2023-08-21T12:31:19;100000.81;;;34.39
78905;BMP280;68291;49.602;8.722;2023-08-21T12:33:58;100003.06;;;34.42
78905;BMP280;68291;49.602;8.722;2023-08-21T12:36:43;100008.63;;;34.47
78905;BMP280;68291;49.602;8.722;2023-08-21T12:39:26;100001.41;;;34.54
78905;BMP280;68291;49.602;8.722;2023-08-21T12:42:07;99999.53;;;34.67
78905;BMP280;68291;49.602;8.722;2023-08-21T12:45:00;99996.03;;;34.80
78905;BMP280;68291;49.602;8.722;2023-08-21T12:47:36;99983.81;;;34.96
78905;BMP280;68291;49.602;8.722;2023-08-21T12:50:21;99983.47;;;35.17
78905;BMP280;68291;49.602;8.722;2023-08-21T12:53:07;99980.78;;;35.30
78905;BMP280;68291;49.602;8.722;2023-08-21T12:55:58;99982.00;;;35.34
78905;BMP280;68291;49.602;8.722;2023-08-21T12:58:54;99973.94;;;35.34
78905;BMP280;68291;49.602;8.722;2023-08-21T13:02:21;99975.97;;;35.38
78905;BMP280;68291;49.602;8.722;2023-08-21T13:04:52;99978.63;;;35.45
78905;BMP280;68291;49.602;8.722;2023-08-21T13:07:40;99969.72;;;35.81
78905;BMP280;68291;49.602;8.722;2023-08-21T13:10:15;99962.66;;;36.35
78905;BMP280;68291;49.602;8.722;2023-08-21T13:13:04;99961.53;;;37.13
78905;BMP280;68291;49.602;8.722;2023-08-21T13:15:50;99957.38;;;37.98
78905;BMP280;68291;49.602;8.722;2023-08-21T13:18:51;99969.19;;;38.54
78905;BMP280;68291;49.602;8.722;2023-08-21T13:21:46;99960.09;;;38.94
78905;BMP280;68291;49.602;8.722;2023-08-21T13:24:45;99953.97;;;39.53
78905;BMP280;68291;49.602;8.722;2023-08-21T13:27:28;99960.66;;;40.11
78905;BMP280;68291;49.602;8.722;2023-08-21T13:30:03;99960.63;;;40.44
78905;BMP280;68291;49.602;8.722;2023-08-21T13:32:45;99959.06;;;40.85
78905;BMP280;68291;49.602;8.722;2023-08-21T13:36:08;99945.31;;;41.13
78905;BMP280;68291;49.602;8.722;2023-08-21T13:38:41;99949.69;;;41.40
78905;BMP280;68291;49.602;8.722;2023-08-21T13:41:21;99946.50;;;41.69
78905;BMP280;68291;49.602;8.722;2023-08-21T13:44:00;99950.53;;;41.97
78905;BMP280;68291;49.602;8.722;2023-08-21T13:46:43;99951.22;;;42.24
78905;BMP280;68291;49.602;8.722;2023-08-21T13:49:27;99955.03;;;42.69
78905;BMP280;68291;49.602;8.722;2023-08-21T13:52:14;99938.66;;;43.05
78905;BMP280;68291;49.602;8.722;2023-08-21T13:54:55;99947.06;;;43.03
78905;BMP280;68291;49.602;8.722;2023-08-21T13:57:30;99943.06;;;42.60
78905;BMP280;68291;49.602;8.722;2023-08-21T14:00:13;99945.03;;;42.28
78905;BMP280;68291;49.602;8.722;2023-08-21T14:02:58;99940.38;;;42.14
78905;BMP280;68291;49.602;8.722;2023-08-21T14:05:54;99939.25;;;42.10
78905;BMP280;68291;49.602;8.722;2023-08-21T14:08:50;99932.53;;;41.82
78905;BMP280;68291;49.602;8.722;2023-08-21T14:12:07;99926.09;;;41.92
78905;BMP280;68291;49.602;8.722;2023-08-21T14:14:45;99928.41;;;42.10
78905;BMP280;68291;49.602;8.722;2023-08-21T14:17:35;99926.19;;;42.43
78905;BMP280;68291;49.602;8.722;2023-08-21T14:20:31;99917.78;;;42.96
78905;BMP280;68291;49.602;8.722;2023-08-21T14:23:17;99914.63;;;43.43
78905;BMP280;68291;49.602;8.722;2023-08-21T14:26:38;99910.31;;;43.67
78905;BMP280;68291;49.602;8.722;2023-08-21T14:29:23;99919.81;;;43.74
78905;BMP280;68291;49.602;8.722;2023-08-21T14:32:09;99907.34;;;43.58
78905;BMP280;68291;49.602;8.722;2023-08-21T14:34:57;99908.91;;;43.34
78905;BMP280;68291;49.602;8.722;2023-08-21T14:37:43;99902.81;;;42.93
78905;BMP280;68291;49.602;8.722;2023-08-21T14:40:28;99910.56;;;42.65
78905;BMP280;68291;49.602;8.722;2023-08-21T14:43:17;99892.78;;;42.84
78905;BMP280;68291;49.602;8.722;2023-08-21T14:45:49;99893.69;;;43.14
78905;BMP280;68291;49.602;8.722;2023-08-21T14:48:28;99900.22;;;43.33
78905;BMP280;68291;49.602;8.722;2023-08-21T14:51:08;99897.56;;;43.52
78905;BMP280;68291;49.602;8.722;2023-08-21T14:53:47;99900.81;;;43.84
78905;BMP280;68291;49.602;8.722;2023-08-21T14:56:25;99889.91;;;44.23
78905;BMP280;68291;49.602;8.722;2023-08-21T14:59:10;99885.34;;;44.72
78905;BMP280;68291;49.602;8.722;2023-08-21T15:01:48;99887.09;;;45.10
78905;BMP280;68291;49.602;8.722;2023-08-21T15:04:38;99887.31;;;45.14
78905;BMP280;68291;49.602;8.722;2023-08-21T15:07:24;99885.94;;;45.16
78905;BMP280;68291;49.602;8.722;2023-08-21T15:10:01;99889.13;;;45.28
78905;BMP280;68291;49.602;8.722;2023-08-21T15:13:01;99877.41;;;45.33
78905;BMP280;68291;49.602;8.722;2023-08-21T15:16:21;99879.19;;;45.09
78905;BMP280;68291;49.602;8.722;2023-08-21T15:19:08;99873.03;;;45.32
78905;BMP280;68291;49.602;8.722;2023-08-21T15:21:54;99865.94;;;45.41
78905;BMP280;68291;49.602;8.722;2023-08-21T15:24:39;99862.16;;;45.65
78905;BMP280;68291;49.602;8.722;2023-08-21T15:27:23;99862.75;;;45.90
78905;BMP280;68291;49.602;8.722;2023-08-21T15:30:01;99862.03;;;46.08
78905;BMP280;68291;49.602;8.722;2023-08-21T15:33:19;99857.72;;;46.02
78905;BMP280;68291;49.602;8.722;2023-08-21T15:36:06;99861.56;;;45.68
78905;BMP280;68291;49.602;8.722;2023-08-21T15:39:22;99847.56;;;45.18
78905;BMP280;68291;49.602;8.722;2023-08-21T15:42:27;99846.63;;;44.94
78905;BMP280;68291;49.602;8.722;2023-08-21T15:45:23;99843.88;;;45.04
78905;BMP280;68291;49.602;8.722;2023-08-21T15:48:04;99836.47;;;45.09
78905;BMP280;68291;49.602;8.722;2023-08-21T15:50:52;99842.25;;;45.03
78905;BMP280;68291;49.602;8.722;2023-08-21T15:53:26;99838.53;;;44.84
78905;BMP280;68291;49.602;8.722;2023-08-21T15:56:22;99834.88;;;44.56
78905;BMP280;68291;49.602;8.722;2023-08-21T15:59:13;99831.75;;;44.24
78905;BMP280;68291;49.602;8.722;2023-08-21T16:02:29;99835.66;;;43.84
78905;BMP280;68291;49.602;8.722;2023-08-21T16:05:21;99830.50;;;43.67
78905;BMP280;68291;49.602;8.722;2023-08-21T16:08:39;99831.34;;;43.58
78905;BMP280;68291;49.602;8.722;2023-08-21T16:11:22;99816.44;;;43.56